createdAt,value
2023-04-20T06:21:52.379Z,3868.7
2023-04-20T06:27:25.947Z,3879.5
2023-04-20T06:33:02.692Z,3883.8
2023-04-20T06:38:39.439Z,3884.7
2023-04-20T06:44:16.659Z,3889.2
2023-04-20T06:49:51.849Z,3897.1
2023-04-20T06:55:28.309Z,3897.9
2023-04-20T07:01:03.601Z,3906.1
2023-04-20T07:06:38.788Z,3903.1
2023-04-20T07:12:15.274Z,3902.2
2023-04-20T07:17:51.947Z,3910.8
2023-04-20T07:23:27.808Z,3906.9
2023-04-20T07:29:05.406Z,3918.5
2023-04-20T07:34:40.932Z,3925.2
2023-04-20T07:40:18.467Z,3919
2023-04-20T07:45:56.009Z,3924.7
2023-04-20T07:51:31.203Z,3933.6
2023-04-20T07:57:07.950Z,3939.6
2023-04-20T08:02:45.952Z,3931.6
2023-04-20T08:08:22.217Z,3938.3
2023-04-20T08:14:10.775Z,3936.8
2023-04-20T08:20:08.623Z,3952.5
2023-04-20T08:25:42.845Z,3956.5
2023-04-20T08:31:18.297Z,3951.2
2023-04-20T08:36:55.337Z,3955.5
2023-04-20T08:42:32.501Z,3972.4
2023-04-20T08:48:08.400Z,4017.3
2023-04-20T08:53:44.671Z,4039.8
2023-04-20T08:59:23.328Z,4038.3
2023-04-20T09:05:00.937Z,4038.1
2023-04-20T09:10:37.312Z,4042.8
2023-04-20T09:16:13.389Z,4042.3
2023-04-20T09:21:48.730Z,3982.8
2023-04-20T09:27:25.278Z,4043.8
2023-04-20T09:33:01.032Z,4001.4
2023-04-20T09:38:37.174Z,4005.1
2023-04-20T09:44:13.212Z,3996.6
2023-04-20T09:49:48.847Z,3990
2023-04-20T09:55:24.647Z,3988.3
2023-04-20T10:01:01.272Z,3989.3
2023-04-20T10:06:37.828Z,3997.1
2023-04-20T10:12:13.611Z,4007.3
2023-04-20T10:17:51.589Z,4014.1
2023-04-20T10:23:27.617Z,3995.9
2023-04-20T10:29:03.574Z,3998.1
2023-04-20T10:34:40.417Z,4000.4
2023-04-20T10:40:15.736Z,4053.8
2023-04-20T10:45:51.816Z,4061.4
2023-04-20T10:51:28.543Z,4065.9
2023-04-20T10:57:05.332Z,4070.9
2023-04-20T11:02:42.991Z,4049.8
2023-04-20T11:08:19.079Z,4043.1
2023-04-20T11:13:55.415Z,4037.9
2023-04-20T11:19:31.839Z,4041.3
2023-04-20T11:25:07.662Z,4045.1
2023-04-20T11:30:43.378Z,4051
2023-04-20T11:36:18.894Z,4053.3
2023-04-20T11:41:57.092Z,4050.7
2023-04-20T11:47:32.088Z,4047.6
2023-04-20T11:53:09.100Z,4055.8
2023-04-20T11:58:46.580Z,4057.2
2023-04-20T12:04:25.949Z,4070.9
2023-04-20T12:10:02.388Z,4063.2
2023-04-20T12:15:39.284Z,4068.6
2023-04-20T12:21:15.048Z,4077
2023-04-20T12:26:50.528Z,4143.6
2023-04-20T12:32:27.817Z,4149.6
2023-04-20T12:38:04.956Z,4173.9
2023-04-20T12:43:41.233Z,4196.5
2023-04-20T12:49:19.513Z,4196.4
2023-04-20T12:54:55.651Z,4198.9
2023-04-20T13:00:32.849Z,4200.6
2023-04-20T13:06:09.050Z,4201.2
2023-04-20T13:11:44.074Z,4202.6
2023-04-20T13:17:19.695Z,4201.2
2023-04-20T13:23:00.130Z,4203.9
2023-04-20T13:28:34.961Z,4206.9
2023-04-20T13:34:10.622Z,4206.4
2023-04-20T13:39:46.489Z,4203.7
2023-04-20T13:45:22.713Z,4208.6
2023-04-20T13:50:59.533Z,4202.1
2023-04-20T13:56:35.848Z,4206.1
2023-04-20T14:02:12.329Z,4206.6
2023-04-20T14:07:47.790Z,4210.3
2023-04-20T14:13:25.183Z,4211.1
2023-04-20T14:19:00.441Z,4203.1
2023-04-20T14:24:35.498Z,4194.5
2023-04-20T14:30:12.030Z,4205.3
2023-04-20T14:35:48.815Z,4199.4
2023-04-20T14:41:25.219Z,4205.1
2023-04-20T14:47:02.240Z,4211.3
2023-04-20T14:52:38.604Z,4219.2
2023-04-20T14:58:17.771Z,4209.6
2023-04-20T15:03:56.630Z,4200.1
2023-04-20T15:09:32.990Z,4199.4
2023-04-20T15:15:09.503Z,4221.2
2023-04-20T15:21:06.971Z,4199.4
2023-04-20T15:26:41.151Z,4198.7
2023-04-20T15:32:17.727Z,4200.2
2023-04-20T15:37:53.729Z,4200.7
2023-04-20T15:43:30.153Z,4183.3
2023-04-20T15:49:07.179Z,4187.5
2023-04-20T15:54:43.886Z,4188.3
2023-04-20T16:00:20.269Z,4189.8
2023-04-20T16:05:56.317Z,4200.9
2023-04-20T16:11:33.453Z,4204.4
2023-04-20T16:17:10.494Z,4191.5
2023-04-20T16:22:46.882Z,4180.3
2023-04-20T16:28:23.033Z,4182.8
2023-04-20T16:33:58.602Z,4180.6
2023-04-20T16:39:34.353Z,4186.8
2023-04-20T16:45:11.284Z,4191.9
2023-04-20T16:50:46.835Z,4190.9
2023-04-20T16:56:23.215Z,4180
2023-04-20T17:01:58.774Z,4179.3
2023-04-20T17:07:35.648Z,4182.1
2023-04-20T17:13:11.021Z,4180.8
2023-04-20T17:19:08.165Z,4175.4
2023-04-20T17:24:42.165Z,4179.8
2023-04-20T17:30:17.184Z,4176.4
2023-04-20T17:35:53.359Z,4183.6
2023-04-20T17:41:29.514Z,4183.1
2023-04-20T17:47:04.655Z,4185.7
2023-04-20T17:52:39.961Z,4179.6
2023-04-20T17:58:16.509Z,4178.1
2023-04-20T18:03:53.585Z,4174.4
2023-04-20T18:09:29.406Z,4175.1
2023-04-20T18:15:09.095Z,4173.1
2023-04-20T18:21:09.373Z,4170.2
2023-04-20T18:26:42.042Z,4170.6
2023-04-20T18:32:17.181Z,4169.6
2023-04-20T18:37:53.376Z,4170.9
2023-04-20T18:43:28.873Z,4168.4
2023-04-20T18:49:05.471Z,4169.7
2023-04-20T18:54:41.494Z,4169.6
2023-04-20T19:00:17.397Z,4168.6
2023-04-20T19:05:53.165Z,4169.4
2023-04-20T19:11:30.359Z,4167.9
2023-04-20T19:17:07.500Z,4165.1
2023-04-20T19:22:43.193Z,4166.2
2023-04-20T19:28:18.709Z,4166.2
2023-04-20T19:33:58.823Z,4164.4
2023-04-20T19:39:35.938Z,4166.7
2023-04-20T19:45:12.273Z,4165.6
2023-04-20T19:50:49.532Z,4166.6
2023-04-20T19:56:24.836Z,4163.4
2023-04-20T20:02:01.845Z,4164.6
2023-04-20T20:07:39.015Z,4164.4
2023-04-20T20:13:15.049Z,4162.2
2023-04-20T20:19:12.214Z,4160.2
2023-04-20T20:24:47.624Z,4162
2023-04-20T20:30:22.596Z,4160.5
2023-04-20T20:35:58.019Z,4164
2023-04-20T20:41:34.090Z,4158.9
2023-04-20T20:47:11.094Z,4162
2023-04-20T20:52:46.776Z,4161.9
2023-04-20T20:58:22.267Z,4161.4
2023-04-20T21:04:01.021Z,4159.9
2023-04-20T21:09:37.318Z,4161.2
